createdAt,value
2023-01-29T00:22:03.820Z,82.6
2023-01-29T00:52:21.129Z,82.9
2023-01-29T01:22:38.958Z,83.2
2023-01-29T01:52:57.402Z,82.9
2023-01-29T02:23:15.001Z,83.8
2023-01-29T02:53:32.586Z,85.7
2023-01-29T03:23:50.303Z,86
2023-01-29T03:54:09.195Z,86.3
2023-01-29T04:24:26.366Z,86.2
2023-01-29T04:54:43.872Z,86.4
2023-01-29T05:25:05.456Z,87.5
2023-01-29T05:55:25.168Z,88.30001
2023-01-29T06:25:44.775Z,88.2
2023-01-29T06:56:02.499Z,88.6
2023-01-29T07:26:19.370Z,88.1
2023-01-29T07:56:37.413Z,85.7
2023-01-29T08:26:56.787Z,85.4
2023-01-29T08:57:16.126Z,84.2
2023-01-29T09:27:34.079Z,84.2
2023-01-29T09:57:51.339Z,84.1
2023-01-29T10:28:10.913Z,83.2
2023-01-29T10:58:31.274Z,80.30001
2023-01-29T11:28:51.924Z,79.7
2023-01-29T11:59:09.731Z,80.2
2023-01-29T12:29:29.794Z,79
2023-01-29T12:59:46.076Z,80
2023-01-29T13:30:00.713Z,80.7
2023-01-29T14:00:14.407Z,83.30001
2023-01-29T14:30:31.600Z,84.3
2023-01-29T15:00:48.619Z,85.80001
2023-01-29T15:31:05.348Z,86.50001
2023-01-29T16:01:22.630Z,87.40001
2023-01-29T16:31:39.615Z,88.9
2023-01-29T17:01:56.996Z,90.6
2023-01-29T17:32:17.915Z,92.40001
2023-01-29T18:02:36.171Z,93.9
2023-01-29T18:32:53.911Z,95.2
2023-01-29T19:03:12.416Z,95.5
2023-01-29T19:33:30.349Z,95.9
2023-01-29T20:03:48.788Z,95.5
2023-01-29T20:34:08.608Z,93
2023-01-29T21:04:27.759Z,91.50001
2023-01-29T21:34:45.507Z,90.80001
2023-01-29T22:05:17.493Z,91.2
2023-01-29T22:35:26.434Z,92
2023-01-29T23:05:45.005Z,91.8
2023-01-29T23:36:03.319Z,91.90001
